sensor_id;sensor_type;location;lat;lon;timestamp;temperature;humidity
10121;DHT22;5100;45.176;5.714;2022-09-21T00:00:38;17.70;61.70
10121;DHT22;5100;45.176;5.714;2022-09-21T00:03:05;17.70;62.00
10121;DHT22;5100;45.176;5.714;2022-09-21T00:05:32;17.60;62.20
10121;DHT22;5100;45.176;5.714;2022-09-21T00:08:03;17.60;62.50
10121;DHT22;5100;45.176;5.714;2022-09-21T00:10:30;17.60;62.60
10121;DHT22;5100;45.176;5.714;2022-09-21T00:12:57;17.50;62.70
10121;DHT22;5100;45.176;5.714;2022-09-21T00:15:24;17.50;62.80
10121;DHT22;5100;45.176;5.714;2022-09-21T00:17:55;17.50;62.70
10121;DHT22;5100;45.176;5.714;2022-09-21T00:20:22;17.50;62.80
10121;DHT22;5100;45.176;5.714;2022-09-21T00:22:49;17.40;62.80
10121;DHT22;5100;45.176;5.714;2022-09-21T00:25:17;17.40;62.80
10121;DHT22;5100;45.176;5.714;2022-09-21T00:27:43;17.40;62.90
10121;DHT22;5100;45.176;5.714;2022-09-21T00:30:10;17.40;62.90
10121;DHT22;5100;45.176;5.714;2022-09-21T00:32:37;17.30;62.90
10121;DHT22;5100;45.176;5.714;2022-09-21T00:35:05;17.30;63.00
10121;DHT22;5100;45.176;5.714;2022-09-21T00:37:34;17.30;63.00
10121;DHT22;5100;45.176;5.714;2022-09-21T00:40:01;17.30;63.10
10121;DHT22;5100;45.176;5.714;2022-09-21T00:42:31;17.30;63.10
10121;DHT22;5100;45.176;5.714;2022-09-21T00:44:58;17.20;63.30
10121;DHT22;5100;45.176;5.714;2022-09-21T00:47:40;17.20;63.40
10121;DHT22;5100;45.176;5.714;2022-09-21T00:50:09;17.20;63.60
10121;DHT22;5100;45.176;5.714;2022-09-21T00:52:40;17.20;63.60
10121;DHT22;5100;45.176;5.714;2022-09-21T00:55:17;17.20;63.70
10121;DHT22;5100;45.176;5.714;2022-09-21T00:57:47;17.10;63.70
10121;DHT22;5100;45.176;5.714;2022-09-21T01:00:15;17.10;63.60
10121;DHT22;5100;45.176;5.714;2022-09-21T01:02:41;17.10;63.60
10121;DHT22;5100;45.176;5.714;2022-09-21T01:05:08;17.10;63.70
10121;DHT22;5100;45.176;5.714;2022-09-21T01:07:37;17.00;63.70
10121;DHT22;5100;45.176;5.714;2022-09-21T01:10:07;17.00;63.80
10121;DHT22;5100;45.176;5.714;2022-09-21T01:17:49;16.90;63.90
10121;DHT22;5100;45.176;5.714;2022-09-21T01:32:06;16.80;64.00
10121;DHT22;5100;45.176;5.714;2022-09-21T01:34:43;16.80;64.00
10121;DHT22;5100;45.176;5.714;2022-09-21T01:37:36;16.80;64.10
10121;DHT22;5100;45.176;5.714;2022-09-21T01:40:08;16.80;64.00
10121;DHT22;5100;45.176;5.714;2022-09-21T01:42:38;16.70;63.80
10121;DHT22;5100;45.176;5.714;2022-09-21T01:45:06;16.70;63.70
10121;DHT22;5100;45.176;5.714;2022-09-21T01:47:35;16.70;63.70
10121;DHT22;5100;45.176;5.714;2022-09-21T01:50:07;16.70;63.70
10121;DHT22;5100;45.176;5.714;2022-09-21T01:52:56;16.70;63.70
10121;DHT22;5100;45.176;5.714;2022-09-21T01:55:29;16.60;63.50
10121;DHT22;5100;45.176;5.714;2022-09-21T01:58:29;16.60;63.50
10121;DHT22;5100;45.176;5.714;2022-09-21T02:00:58;16.60;63.60
10121;DHT22;5100;45.176;5.714;2022-09-21T02:03:47;16.60;63.70
10121;DHT22;5100;45.176;5.714;2022-09-21T02:06:16;16.60;63.60
10121;DHT22;5100;45.176;5.714;2022-09-21T02:08:43;16.60;63.70
10121;DHT22;5100;45.176;5.714;2022-09-21T02:11:09;16.60;63.70
10121;DHT22;5100;45.176;5.714;2022-09-21T02:13:41;16.50;63.80
10121;DHT22;5100;45.176;5.714;2022-09-21T02:19:12;16.50;63.90
10121;DHT22;5100;45.176;5.714;2022-09-21T02:24:58;16.50;64.10
10121;DHT22;5100;45.176;5.714;2022-09-21T02:30:18;16.50;64.30
10121;DHT22;5100;45.176;5.714;2022-09-21T02:33:11;16.40;64.30
10121;DHT22;5100;45.176;5.714;2022-09-21T02:35:59;16.40;64.40
10121;DHT22;5100;45.176;5.714;2022-09-21T02:38:38;16.40;64.40
10121;DHT22;5100;45.176;5.714;2022-09-21T02:41:18;16.40;64.40
10121;DHT22;5100;45.176;5.714;2022-09-21T02:43:59;16.40;64.50
10121;DHT22;5100;45.176;5.714;2022-09-21T02:46:47;16.40;64.50
10121;DHT22;5100;45.176;5.714;2022-09-21T02:49:28;16.30;64.60
10121;DHT22;5100;45.176;5.714;2022-09-21T02:51:59;16.30;64.50
10121;DHT22;5100;45.176;5.714;2022-09-21T02:54:30;16.30;64.60
10121;DHT22;5100;45.176;5.714;2022-09-21T02:56:58;16.30;64.50
10121;DHT22;5100;45.176;5.714;2022-09-21T02:59:26;16.30;64.50
10121;DHT22;5100;45.176;5.714;2022-09-21T03:01:53;16.30;64.70
10121;DHT22;5100;45.176;5.714;2022-09-21T03:04:21;16.30;64.70
10121;DHT22;5100;45.176;5.714;2022-09-21T03:06:47;16.20;64.70
10121;DHT22;5100;45.176;5.714;2022-09-21T03:09:13;16.20;64.70
10121;DHT22;5100;45.176;5.714;2022-09-21T03:11:39;16.20;64.90
10121;DHT22;5100;45.176;5.714;2022-09-21T03:14:08;16.20;64.90
10121;DHT22;5100;45.176;5.714;2022-09-21T03:16:35;16.20;64.80
10121;DHT22;5100;45.176;5.714;2022-09-21T03:19:02;16.20;64.90
10121;DHT22;5100;45.176;5.714;2022-09-21T03:21:28;16.20;64.80
10121;DHT22;5100;45.176;5.714;2022-09-21T03:23:54;16.20;64.90
10121;DHT22;5100;45.176;5.714;2022-09-21T03:26:20;16.10;65.10
10121;DHT22;5100;45.176;5.714;2022-09-21T03:28:51;16.10;65.00
10121;DHT22;5100;45.176;5.714;2022-09-21T03:31:20;16.10;65.10
10121;DHT22;5100;45.176;5.714;2022-09-21T03:33:46;16.10;65.10
10121;DHT22;5100;45.176;5.714;2022-09-21T03:36:12;16.10;65.10
10121;DHT22;5100;45.176;5.714;2022-09-21T03:38:39;16.10;65.10
10121;DHT22;5100;45.176;5.714;2022-09-21T03:41:05;16.00;65.20
10121;DHT22;5100;45.176;5.714;2022-09-21T03:43:32;16.00;65.10
10121;DHT22;5100;45.176;5.714;2022-09-21T03:45:58;16.00;65.10
10121;DHT22;5100;45.176;5.714;2022-09-21T03:48:24;16.00;65.10
10121;DHT22;5100;45.176;5.714;2022-09-21T03:50:50;16.00;65.20
10121;DHT22;5100;45.176;5.714;2022-09-21T03:53:16;16.00;65.20
10121;DHT22;5100;45.176;5.714;2022-09-21T03:55:43;16.00;65.20
10121;DHT22;5100;45.176;5.714;2022-09-21T03:58:09;16.00;65.30
10121;DHT22;5100;45.176;5.714;2022-09-21T04:00:35;16.00;65.40
10121;DHT22;5100;45.176;5.714;2022-09-21T04:03:03;16.00;65.50
10121;DHT22;5100;45.176;5.714;2022-09-21T04:05:29;15.90;65.50
10121;DHT22;5100;45.176;5.714;2022-09-21T04:07:55;15.90;65.60
10121;DHT22;5100;45.176;5.714;2022-09-21T04:10:23;15.90;65.60
10121;DHT22;5100;45.176;5.714;2022-09-21T04:12:57;15.90;65.90
10121;DHT22;5100;45.176;5.714;2022-09-21T04:15:23;15.90;66.00
10121;DHT22;5100;45.176;5.714;2022-09-21T04:17:50;15.90;66.00
10121;DHT22;5100;45.176;5.714;2022-09-21T04:20:17;15.90;66.10
10121;DHT22;5100;45.176;5.714;2022-09-21T04:22:43;15.90;66.10
10121;DHT22;5100;45.176;5.714;2022-09-21T04:25:11;15.80;66.20
10121;DHT22;5100;45.176;5.714;2022-09-21T04:27:37;15.80;66.10
10121;DHT22;5100;45.176;5.714;2022-09-21T04:30:05;15.80;66.20
10121;DHT22;5100;45.176;5.714;2022-09-21T04:32:31;15.80;66.20
10121;DHT22;5100;45.176;5.714;2022-09-21T04:34:57;15.80;66.20
10121;DHT22;5100;45.176;5.714;2022-09-21T04:37:24;15.80;66.20
10121;DHT22;5100;45.176;5.714;2022-09-21T04:39:50;15.80;66.20
10121;DHT22;5100;45.176;5.714;2022-09-21T04:42:16;15.80;66.20
10121;DHT22;5100;45.176;5.714;2022-09-21T04:44:42;15.80;66.30
10121;DHT22;5100;45.176;5.714;2022-09-21T04:47:08;15.80;66.20
10121;DHT22;5100;45.176;5.714;2022-09-21T04:49:34;15.80;66.20
10121;DHT22;5100;45.176;5.714;2022-09-21T04:52:00;15.80;66.20
10121;DHT22;5100;45.176;5.714;2022-09-21T04:54:27;15.70;66.20
10121;DHT22;5100;45.176;5.714;2022-09-21T04:56:53;15.70;66.10
10121;DHT22;5100;45.176;5.714;2022-09-21T04:59:19;15.70;66.20
10121;DHT22;5100;45.176;5.714;2022-09-21T05:01:45;15.70;66.20
10121;DHT22;5100;45.176;5.714;2022-09-21T05:04:11;15.70;66.20
10121;DHT22;5100;45.176;5.714;2022-09-21T05:06:37;15.70;66.20
10121;DHT22;5100;45.176;5.714;2022-09-21T05:09:03;15.70;66.20
10121;DHT22;5100;45.176;5.714;2022-09-21T05:11:48;15.70;66.20
10121;DHT22;5100;45.176;5.714;2022-09-21T05:14:14;15.70;66.10
10121;DHT22;5100;45.176;5.714;2022-09-21T05:16:40;15.60;66.10
10121;DHT22;5100;45.176;5.714;2022-09-21T05:19:06;15.60;66.10
10121;DHT22;5100;45.176;5.714;2022-09-21T05:21:32;15.60;66.10
10121;DHT22;5100;45.176;5.714;2022-09-21T05:23:58;15.60;66.00
10121;DHT22;5100;45.176;5.714;2022-09-21T05:26:25;15.60;66.10
10121;DHT22;5100;45.176;5.714;2022-09-21T05:28:51;15.60;66.10
10121;DHT22;5100;45.176;5.714;2022-09-21T05:35:06;15.60;66.30
10121;DHT22;5100;45.176;5.714;2022-09-21T05:39:35;15.60;66.40
10121;DHT22;5100;45.176;5.714;2022-09-21T05:42:01;15.60;66.50
10121;DHT22;5100;45.176;5.714;2022-09-21T05:44:27;15.60;66.50
10121;DHT22;5100;45.176;5.714;2022-09-21T05:52:27;15.60;66.50
10121;DHT22;5100;45.176;5.714;2022-09-21T05:58:07;15.60;66.50
10121;DHT22;5100;45.176;5.714;2022-09-21T06:03:29;15.50;66.50
10121;DHT22;5100;45.176;5.714;2022-09-21T06:05:56;15.50;66.40
10121;DHT22;5100;45.176;5.714;2022-09-21T06:08:24;15.50;66.50
10121;DHT22;5100;45.176;5.714;2022-09-21T06:10:50;15.60;66.50
10121;DHT22;5100;45.176;5.714;2022-09-21T06:13:17;15.60;66.50
10121;DHT22;5100;45.176;5.714;2022-09-21T06:15:44;15.60;66.50
10121;DHT22;5100;45.176;5.714;2022-09-21T06:18:10;15.60;66.40
10121;DHT22;5100;45.176;5.714;2022-09-21T06:20:36;15.60;66.40
10121;DHT22;5100;45.176;5.714;2022-09-21T06:23:07;15.60;66.30
10121;DHT22;5100;45.176;5.714;2022-09-21T06:25:33;15.60;66.20
10121;DHT22;5100;45.176;5.714;2022-09-21T06:28:08;15.70;66.10
10121;DHT22;5100;45.176;5.714;2022-09-21T06:30:35;15.70;66.00
10121;DHT22;5100;45.176;5.714;2022-09-21T06:33:05;15.70;66.00
10121;DHT22;5100;45.176;5.714;2022-09-21T06:35:34;15.70;66.00
10121;DHT22;5100;45.176;5.714;2022-09-21T06:38:05;15.80;66.00
10121;DHT22;5100;45.176;5.714;2022-09-21T06:40:33;15.80;66.00
10121;DHT22;5100;45.176;5.714;2022-09-21T06:43:01;15.80;66.00
10121;DHT22;5100;45.176;5.714;2022-09-21T06:45:28;15.80;65.90
10121;DHT22;5100;45.176;5.714;2022-09-21T06:47:55;15.90;65.90
10121;DHT22;5100;45.176;5.714;2022-09-21T06:50:22;15.90;65.90
10121;DHT22;5100;45.176;5.714;2022-09-21T06:52:48;15.90;65.90
10121;DHT22;5100;45.176;5.714;2022-09-21T06:55:14;15.90;65.70
10121;DHT22;5100;45.176;5.714;2022-09-21T06:57:40;15.90;65.60
10121;DHT22;5100;45.176;5.714;2022-09-21T07:00:09;16.00;65.40
10121;DHT22;5100;45.176;5.714;2022-09-21T07:02:35;16.00;65.30
10121;DHT22;5100;45.176;5.714;2022-09-21T07:05:03;16.00;65.20
10121;DHT22;5100;45.176;5.714;2022-09-21T07:07:29;16.10;65.20
10121;DHT22;5100;45.176;5.714;2022-09-21T07:09:56;16.10;65.10
10121;DHT22;5100;45.176;5.714;2022-09-21T07:12:29;16.10;65.00
10121;DHT22;5100;45.176;5.714;2022-09-21T07:14:58;16.20;64.90
10121;DHT22;5100;45.176;5.714;2022-09-21T07:17:24;16.20;64.90
10121;DHT22;5100;45.176;5.714;2022-09-21T07:19:51;16.20;64.70
10121;DHT22;5100;45.176;5.714;2022-09-21T07:22:16;16.30;64.80
10121;DHT22;5100;45.176;5.714;2022-09-21T07:24:42;16.30;64.70
10121;DHT22;5100;45.176;5.714;2022-09-21T07:27:08;16.30;64.70
10121;DHT22;5100;45.176;5.714;2022-09-21T07:29:34;16.40;64.70
10121;DHT22;5100;45.176;5.714;2022-09-21T07:32:00;16.40;64.60
10121;DHT22;5100;45.176;5.714;2022-09-21T07:34:27;16.40;64.60
10121;DHT22;5100;45.176;5.714;2022-09-21T07:36:53;16.50;64.50
10121;DHT22;5100;45.176;5.714;2022-09-21T07:39:19;16.60;64.00
10121;DHT22;5100;45.176;5.714;2022-09-21T07:41:45;16.60;63.60
10121;DHT22;5100;45.176;5.714;2022-09-21T07:44:11;16.60;63.70
10121;DHT22;5100;45.176;5.714;2022-09-21T07:46:37;16.60;63.20
10121;DHT22;5100;45.176;5.714;2022-09-21T07:49:04;16.70;62.50
10121;DHT22;5100;45.176;5.714;2022-09-21T07:51:30;16.70;62.50
10121;DHT22;5100;45.176;5.714;2022-09-21T07:53:56;16.70;62.50
10121;DHT22;5100;45.176;5.714;2022-09-21T07:56:23;16.80;62.60
10121;DHT22;5100;45.176;5.714;2022-09-21T07:58:49;16.80;62.50
10121;DHT22;5100;45.176;5.714;2022-09-21T08:01:38;16.80;62.10
10121;DHT22;5100;45.176;5.714;2022-09-21T08:04:07;16.90;62.00
10121;DHT22;5100;45.176;5.714;2022-09-21T08:06:34;16.90;62.10
10121;DHT22;5100;45.176;5.714;2022-09-21T08:09:04;16.90;62.10
10121;DHT22;5100;45.176;5.714;2022-09-21T08:11:31;16.90;61.90
10121;DHT22;5100;45.176;5.714;2022-09-21T08:14:00;16.90;61.80
10121;DHT22;5100;45.176;5.714;2022-09-21T08:16:28;17.00;61.40
10121;DHT22;5100;45.176;5.714;2022-09-21T08:18:55;17.00;61.50
10121;DHT22;5100;45.176;5.714;2022-09-21T08:21:21;17.00;61.50
10121;DHT22;5100;45.176;5.714;2022-09-21T08:23:47;17.00;61.10
10121;DHT22;5100;45.176;5.714;2022-09-21T08:26:17;17.10;61.00
10121;DHT22;5100;45.176;5.714;2022-09-21T08:28:45;17.10;61.00
10121;DHT22;5100;45.176;5.714;2022-09-21T08:31:15;17.10;60.90
10121;DHT22;5100;45.176;5.714;2022-09-21T08:33:42;17.10;61.00
10121;DHT22;5100;45.176;5.714;2022-09-21T08:36:08;17.10;61.00
10121;DHT22;5100;45.176;5.714;2022-09-21T08:38:37;17.20;60.90
10121;DHT22;5100;45.176;5.714;2022-09-21T08:41:16;17.20;60.60
10121;DHT22;5100;45.176;5.714;2022-09-21T08:43:53;17.30;60.20
10121;DHT22;5100;45.176;5.714;2022-09-21T08:46:23;17.30;60.10
10121;DHT22;5100;45.176;5.714;2022-09-21T08:48:59;17.40;60.20
10121;DHT22;5100;45.176;5.714;2022-09-21T08:51:33;17.40;60.20
10121;DHT22;5100;45.176;5.714;2022-09-21T08:54:28;17.40;60.10
10121;DHT22;5100;45.176;5.714;2022-09-21T08:56:56;17.40;60.20
10121;DHT22;5100;45.176;5.714;2022-09-21T08:59:23;17.50;60.20
10121;DHT22;5100;45.176;5.714;2022-09-21T09:02:16;17.50;60.10
10121;DHT22;5100;45.176;5.714;2022-09-21T09:10:34;17.50;60.10
10121;DHT22;5100;45.176;5.714;2022-09-21T09:21:27;17.60;59.30
10121;DHT22;5100;45.176;5.714;2022-09-21T09:24:29;17.60;59.30
10121;DHT22;5100;45.176;5.714;2022-09-21T09:27:05;17.60;59.10
10121;DHT22;5100;45.176;5.714;2022-09-21T09:32:13;17.70;59.10
10121;DHT22;5100;45.176;5.714;2022-09-21T09:34:43;17.70;59.20
10121;DHT22;5100;45.176;5.714;2022-09-21T09:37:16;17.80;58.80
10121;DHT22;5100;45.176;5.714;2022-09-21T09:39:47;17.80;58.70
10121;DHT22;5100;45.176;5.714;2022-09-21T09:45:23;17.90;58.60
10121;DHT22;5100;45.176;5.714;2022-09-21T09:50:46;17.90;58.20
10121;DHT22;5100;45.176;5.714;2022-09-21T09:53:21;17.90;58.30
10121;DHT22;5100;45.176;5.714;2022-09-21T09:55:56;17.90;58.40
10121;DHT22;5100;45.176;5.714;2022-09-21T09:58:24;18.00;58.20
10121;DHT22;5100;45.176;5.714;2022-09-21T10:00:53;18.00;58.30
10121;DHT22;5100;45.176;5.714;2022-09-21T10:03:22;18.00;57.90
10121;DHT22;5100;45.176;5.714;2022-09-21T10:05:49;18.00;57.90
10121;DHT22;5100;45.176;5.714;2022-09-21T10:08:39;18.00;58.20
10121;DHT22;5100;45.176;5.714;2022-09-21T10:11:08;18.00;58.30
10121;DHT22;5100;45.176;5.714;2022-09-21T10:13:35;18.00;58.50
10121;DHT22;5100;45.176;5.714;2022-09-21T10:18:47;18.00;58.60
10121;DHT22;5100;45.176;5.714;2022-09-21T10:21:50;18.00;58.40
10121;DHT22;5100;45.176;5.714;2022-09-21T10:24:14;18.00;58.50
10121;DHT22;5100;45.176;5.714;2022-09-21T10:26:48;18.00;58.50
10121;DHT22;5100;45.176;5.714;2022-09-21T10:29:28;18.10;58.70
10121;DHT22;5100;45.176;5.714;2022-09-21T10:31:57;18.10;58.80
10121;DHT22;5100;45.176;5.714;2022-09-21T10:34:25;18.10;58.70
10121;DHT22;5100;45.176;5.714;2022-09-21T10:36:54;18.10;58.00
10121;DHT22;5100;45.176;5.714;2022-09-21T10:39:23;18.10;57.90
10121;DHT22;5100;45.176;5.714;2022-09-21T10:41:53;18.10;57.90
10121;DHT22;5100;45.176;5.714;2022-09-21T10:44:23;18.10;58.00
10121;DHT22;5100;45.176;5.714;2022-09-21T10:46:51;18.10;57.90
10121;DHT22;5100;45.176;5.714;2022-09-21T10:49:26;18.10;58.00
10121;DHT22;5100;45.176;5.714;2022-09-21T10:51:56;18.20;58.00
10121;DHT22;5100;45.176;5.714;2022-09-21T10:54:27;18.20;58.00
10121;DHT22;5100;45.176;5.714;2022-09-21T10:57:06;18.20;57.80
10121;DHT22;5100;45.176;5.714;2022-09-21T10:59:36;18.20;57.90
10121;DHT22;5100;45.176;5.714;2022-09-21T11:05:11;18.20;57.90
10121;DHT22;5100;45.176;5.714;2022-09-21T11:10:18;18.30;57.80
10121;DHT22;5100;45.176;5.714;2022-09-21T11:20:57;18.30;58.00
10121;DHT22;5100;45.176;5.714;2022-09-21T11:26:28;18.40;58.10
10121;DHT22;5100;45.176;5.714;2022-09-21T11:34:26;18.50;57.70
10121;DHT22;5100;45.176;5.714;2022-09-21T11:37:10;18.60;57.40
10121;DHT22;5100;45.176;5.714;2022-09-21T11:39:52;18.70;57.00
10121;DHT22;5100;45.176;5.714;2022-09-21T11:48:21;18.90;56.70
10121;DHT22;5100;45.176;5.714;2022-09-21T11:51:05;18.90;56.00
10121;DHT22;5100;45.176;5.714;2022-09-21T11:53:59;18.90;56.30
10121;DHT22;5100;45.176;5.714;2022-09-21T11:59:42;18.90;56.40
10121;DHT22;5100;45.176;5.714;2022-09-21T12:04:48;18.90;56.50
10121;DHT22;5100;45.176;5.714;2022-09-21T12:10:38;18.90;56.40
10121;DHT22;5100;45.176;5.714;2022-09-21T12:15:52;19.00;56.50
10121;DHT22;5100;45.176;5.714;2022-09-21T12:18:36;18.90;56.50
10121;DHT22;5100;45.176;5.714;2022-09-21T12:21:13;19.00;56.70
10121;DHT22;5100;45.176;5.714;2022-09-21T12:26:28;19.00;56.70
10121;DHT22;5100;45.176;5.714;2022-09-21T12:29:05;19.00;56.90
10121;DHT22;5100;45.176;5.714;2022-09-21T12:31:38;19.10;57.30
10121;DHT22;5100;45.176;5.714;2022-09-21T12:34:20;19.10;57.60
10121;DHT22;5100;45.176;5.714;2022-09-21T12:37:12;19.10;57.80
10121;DHT22;5100;45.176;5.714;2022-09-21T12:50:28;19.20;58.60
10121;DHT22;5100;45.176;5.714;2022-09-21T12:52:55;19.20;58.60
10121;DHT22;5100;45.176;5.714;2022-09-21T12:58:18;19.30;58.60
10121;DHT22;5100;45.176;5.714;2022-09-21T13:03:47;19.30;58.30
10121;DHT22;5100;45.176;5.714;2022-09-21T13:09:03;19.40;58.10
10121;DHT22;5100;45.176;5.714;2022-09-21T13:11:31;19.40;58.00
10121;DHT22;5100;45.176;5.714;2022-09-21T13:14:01;19.40;58.00
10121;DHT22;5100;45.176;5.714;2022-09-21T13:16:32;19.40;58.00
10121;DHT22;5100;45.176;5.714;2022-09-21T13:19:21;19.40;57.80
10121;DHT22;5100;45.176;5.714;2022-09-21T13:22:11;19.50;57.80
10121;DHT22;5100;45.176;5.714;2022-09-21T13:25:00;19.50;57.90
10121;DHT22;5100;45.176;5.714;2022-09-21T13:28:03;19.50;58.10
10121;DHT22;5100;45.176;5.714;2022-09-21T13:36:01;19.50;58.10
10121;DHT22;5100;45.176;5.714;2022-09-21T13:41:24;19.60;57.90
10121;DHT22;5100;45.176;5.714;2022-09-21T13:52:41;19.70;58.20
10121;DHT22;5100;45.176;5.714;2022-09-21T13:54:58;19.80;58.20
10121;DHT22;5100;45.176;5.714;2022-09-21T14:02:43;19.80;58.10
10121;DHT22;5100;45.176;5.714;2022-09-21T14:08:04;19.90;57.80
10121;DHT22;5100;45.176;5.714;2022-09-21T14:10:34;19.90;57.50
10121;DHT22;5100;45.176;5.714;2022-09-21T14:13:06;19.90;57.40
10121;DHT22;5100;45.176;5.714;2022-09-21T14:15:46;19.90;57.10
10121;DHT22;5100;45.176;5.714;2022-09-21T14:21:07;19.90;57.60
10121;DHT22;5100;45.176;5.714;2022-09-21T14:23:34;19.90;57.70
10121;DHT22;5100;45.176;5.714;2022-09-21T14:26:19;19.90;57.80
10121;DHT22;5100;45.176;5.714;2022-09-21T14:28:49;20.00;57.90
10121;DHT22;5100;45.176;5.714;2022-09-21T14:31:20;20.00;58.00
10121;DHT22;5100;45.176;5.714;2022-09-21T14:33:53;20.00;58.10
10121;DHT22;5100;45.176;5.714;2022-09-21T14:36:27;20.00;58.00
10121;DHT22;5100;45.176;5.714;2022-09-21T14:39:02;20.00;57.80
10121;DHT22;5100;45.176;5.714;2022-09-21T14:41:37;20.00;57.50
10121;DHT22;5100;45.176;5.714;2022-09-21T14:44:04;20.10;57.40
10121;DHT22;5100;45.176;5.714;2022-09-21T14:49:35;20.10;57.20
10121;DHT22;5100;45.176;5.714;2022-09-21T14:52:07;20.10;57.30
10121;DHT22;5100;45.176;5.714;2022-09-21T14:57:22;20.10;57.30
10121;DHT22;5100;45.176;5.714;2022-09-21T15:00:03;20.10;57.30
10121;DHT22;5100;45.176;5.714;2022-09-21T15:02:39;20.10;57.10
10121;DHT22;5100;45.176;5.714;2022-09-21T15:07:39;20.10;57.40
10121;DHT22;5100;45.176;5.714;2022-09-21T15:10:47;20.10;57.50
10121;DHT22;5100;45.176;5.714;2022-09-21T15:18:45;20.20;57.60
10121;DHT22;5100;45.176;5.714;2022-09-21T15:21:44;20.20;57.40
10121;DHT22;5100;45.176;5.714;2022-09-21T15:24:20;20.20;57.30
10121;DHT22;5100;45.176;5.714;2022-09-21T15:26:47;20.20;57.00
10121;DHT22;5100;45.176;5.714;2022-09-21T15:29:28;20.20;56.90
10121;DHT22;5100;45.176;5.714;2022-09-21T15:31:54;20.20;57.40
10121;DHT22;5100;45.176;5.714;2022-09-21T15:34:22;20.20;57.60
10121;DHT22;5100;45.176;5.714;2022-09-21T15:36:48;20.20;57.80
10121;DHT22;5100;45.176;5.714;2022-09-21T15:39:30;20.20;57.80
10121;DHT22;5100;45.176;5.714;2022-09-21T15:44:36;20.20;57.80
10121;DHT22;5100;45.176;5.714;2022-09-21T15:47:05;20.20;57.80
10121;DHT22;5100;45.176;5.714;2022-09-21T15:49:33;20.20;57.80
10121;DHT22;5100;45.176;5.714;2022-09-21T15:52:19;20.20;57.70
10121;DHT22;5100;45.176;5.714;2022-09-21T15:54:52;20.20;57.60
10121;DHT22;5100;45.176;5.714;2022-09-21T15:57:33;20.20;57.60
10121;DHT22;5100;45.176;5.714;2022-09-21T16:00:06;20.20;57.60
10121;DHT22;5100;45.176;5.714;2022-09-21T16:05:21;20.20;57.70
10121;DHT22;5100;45.176;5.714;2022-09-21T16:07:49;20.20;57.80
10121;DHT22;5100;45.176;5.714;2022-09-21T16:13:03;20.20;57.90
10121;DHT22;5100;45.176;5.714;2022-09-21T16:18:44;20.20;57.70
10121;DHT22;5100;45.176;5.714;2022-09-21T16:23:47;20.20;57.60
10121;DHT22;5100;45.176;5.714;2022-09-21T16:26:26;20.20;57.50
10121;DHT22;5100;45.176;5.714;2022-09-21T16:28:56;20.20;57.50
10121;DHT22;5100;45.176;5.714;2022-09-21T16:31:26;20.20;57.40
10121;DHT22;5100;45.176;5.714;2022-09-21T16:38:51;20.20;57.50
10121;DHT22;5100;45.176;5.714;2022-09-21T16:41:22;20.20;57.50
10121;DHT22;5100;45.176;5.714;2022-09-21T16:43:50;20.20;57.60
10121;DHT22;5100;45.176;5.714;2022-09-21T16:46:17;20.20;57.70
10121;DHT22;5100;45.176;5.714;2022-09-21T16:48:44;20.20;57.60
10121;DHT22;5100;45.176;5.714;2022-09-21T16:51:14;20.20;57.60
10121;DHT22;5100;45.176;5.714;2022-09-21T16:53:42;20.20;57.50
10121;DHT22;5100;45.176;5.714;2022-09-21T16:56:11;20.20;57.50
10121;DHT22;5100;45.176;5.714;2022-09-21T16:58:40;20.20;57.50
10121;DHT22;5100;45.176;5.714;2022-09-21T17:01:10;20.10;57.50
10121;DHT22;5100;45.176;5.714;2022-09-21T17:03:40;20.10;57.60
10121;DHT22;5100;45.176;5.714;2022-09-21T17:06:18;20.10;57.60
10121;DHT22;5100;45.176;5.714;2022-09-21T17:08:44;20.10;57.70
10121;DHT22;5100;45.176;5.714;2022-09-21T17:11:18;20.10;57.70
10121;DHT22;5100;45.176;5.714;2022-09-21T17:13:49;20.10;57.70
10121;DHT22;5100;45.176;5.714;2022-09-21T17:16:16;20.10;57.80
10121;DHT22;5100;45.176;5.714;2022-09-21T17:18:44;20.10;58.00
10121;DHT22;5100;45.176;5.714;2022-09-21T17:21:11;20.00;58.00
10121;DHT22;5100;45.176;5.714;2022-09-21T17:23:37;20.00;58.10
10121;DHT22;5100;45.176;5.714;2022-09-21T17:26:05;20.00;58.20
10121;DHT22;5100;45.176;5.714;2022-09-21T17:28:36;20.00;58.20
10121;DHT22;5100;45.176;5.714;2022-09-21T17:31:04;20.00;58.40
10121;DHT22;5100;45.176;5.714;2022-09-21T17:33:33;20.00;58.40
10121;DHT22;5100;45.176;5.714;2022-09-21T17:36:00;20.00;58.60
10121;DHT22;5100;45.176;5.714;2022-09-21T17:38:26;19.90;58.60
10121;DHT22;5100;45.176;5.714;2022-09-21T17:40:53;19.90;58.70
10121;DHT22;5100;45.176;5.714;2022-09-21T17:46:11;19.90;58.90
10121;DHT22;5100;45.176;5.714;2022-09-21T17:48:39;19.90;58.90
10121;DHT22;5100;45.176;5.714;2022-09-21T17:51:06;19.90;58.90
10121;DHT22;5100;45.176;5.714;2022-09-21T17:53:32;19.80;59.00
10121;DHT22;5100;45.176;5.714;2022-09-21T17:56:16;19.80;59.00
10121;DHT22;5100;45.176;5.714;2022-09-21T17:58:54;19.80;59.00
10121;DHT22;5100;45.176;5.714;2022-09-21T18:01:33;19.80;59.10
10121;DHT22;5100;45.176;5.714;2022-09-21T18:04:01;19.80;59.10
10121;DHT22;5100;45.176;5.714;2022-09-21T18:06:28;19.80;59.10
10121;DHT22;5100;45.176;5.714;2022-09-21T18:08:54;19.70;59.10
10121;DHT22;5100;45.176;5.714;2022-09-21T18:22:34;19.70;59.10
10121;DHT22;5100;45.176;5.714;2022-09-21T18:25:16;19.70;58.90
10121;DHT22;5100;45.176;5.714;2022-09-21T18:27:46;19.70;59.00
10121;DHT22;5100;45.176;5.714;2022-09-21T18:30:13;19.60;59.10
10121;DHT22;5100;45.176;5.714;2022-09-21T18:33:02;19.60;59.30
10121;DHT22;5100;45.176;5.714;2022-09-21T18:35:55;19.60;59.40
10121;DHT22;5100;45.176;5.714;2022-09-21T18:38:29;19.60;59.50
10121;DHT22;5100;45.176;5.714;2022-09-21T18:46:29;19.50;59.80
10121;DHT22;5100;45.176;5.714;2022-09-21T18:51:44;19.50;59.90
10121;DHT22;5100;45.176;5.714;2022-09-21T18:54:22;19.50;60.00
10121;DHT22;5100;45.176;5.714;2022-09-21T18:56:49;19.50;60.20
10121;DHT22;5100;45.176;5.714;2022-09-21T18:59:15;19.50;60.20
10121;DHT22;5100;45.176;5.714;2022-09-21T19:01:42;19.50;60.30
10121;DHT22;5100;45.176;5.714;2022-09-21T19:04:09;19.50;60.40
10121;DHT22;5100;45.176;5.714;2022-09-21T19:09:36;19.40;60.30
10121;DHT22;5100;45.176;5.714;2022-09-21T19:12:14;19.40;60.30
10121;DHT22;5100;45.176;5.714;2022-09-21T19:17:19;19.40;60.30
10121;DHT22;5100;45.176;5.714;2022-09-21T19:22:31;19.40;60.40
10121;DHT22;5100;45.176;5.714;2022-09-21T19:25:28;19.40;60.30
10121;DHT22;5100;45.176;5.714;2022-09-21T19:30:39;19.40;60.30
10121;DHT22;5100;45.176;5.714;2022-09-21T19:33:19;19.40;60.30
10121;DHT22;5100;45.176;5.714;2022-09-21T19:35:48;19.40;60.40
10121;DHT22;5100;45.176;5.714;2022-09-21T19:38:14;19.30;60.40
10121;DHT22;5100;45.176;5.714;2022-09-21T19:40:40;19.30;60.50
10121;DHT22;5100;45.176;5.714;2022-09-21T19:43:16;19.30;60.50
10121;DHT22;5100;45.176;5.714;2022-09-21T19:48:54;19.30;60.60
10121;DHT22;5100;45.176;5.714;2022-09-21T19:52:13;19.30;60.60
10121;DHT22;5100;45.176;5.714;2022-09-21T19:54:22;19.30;60.60
10121;DHT22;5100;45.176;5.714;2022-09-21T19:57:16;19.20;60.60